<?xml version="1.0" encoding="UTF-8" standalone="no" ?>
<gpx xmlns="http://www.topografix.com/GPX/1/1" xmlns:xsi="http://www.w3.org/2001/XMLSchema-instance" xsi:schemaLocation="http://www.topografix.com/GPX/1/1 http://www.topografix.com/GPX/1/1/gpx.xsd" version="1.1" creator="VisuGPX - https://www.visugpx.com">
  <metadata>
    <name>38 - L - Malleval en vercors 13/10/2024</name>
    <desc><![CDATA[38 - L - Malleval en vercors J1 - 13/10/2024]]></desc>
  </metadata>
  <trk>
    <name><![CDATA[Vercors 2024-10-13-01]]></name>
    <trkseg>
      <trkpt lat="45.05929" lon="5.34339">
        <ele>202.3</ele>
        <time>2024-10-13T09:37:55Z</time>
      </trkpt>
      <trkpt lat="45.05929" lon="5.34339">
        <ele>202.3</ele>
        <time>2024-10-13T09:37:56Z</time>
      </trkpt>
      <trkpt lat="45.05938" lon="5.34343">
        <ele>202.3</ele>
        <time>2024-10-13T09:38:37Z</time>
      </trkpt>
      <trkpt lat="45.05943" lon="5.34354">
        <ele>202.2</ele>
        <time>2024-10-13T09:39:10Z</time>
      </trkpt>
      <trkpt lat="45.05951" lon="5.34361">
        <ele>202.3</ele>
        <time>2024-10-13T09:39:29Z</time>
      </trkpt>
      <trkpt lat="45.05959" lon="5.34357">
        <ele>202</ele>
        <time>2024-10-13T09:40:24Z</time>
      </trkpt>
      <trkpt lat="45.05969" lon="5.34357">
        <ele>201.5</ele>
        <time>2024-10-13T09:40:40Z</time>
      </trkpt>
      <trkpt lat="45.05978" lon="5.34352">
        <ele>201.3</ele>
        <time>2024-10-13T09:40:52Z</time>
      </trkpt>
      <trkpt lat="45.05987" lon="5.34348">
        <ele>201.2</ele>
        <time>2024-10-13T09:41:07Z</time>
      </trkpt>
      <trkpt lat="45.05996" lon="5.34348">
        <ele>201.2</ele>
        <time>2024-10-13T09:41:18Z</time>
      </trkpt>
      <trkpt lat="45.06005" lon="5.34344">
        <ele>201.4</ele>
        <time>2024-10-13T09:41:30Z</time>
      </trkpt>
      <trkpt lat="45.06013" lon="5.34352">
        <ele>201.3</ele>
        <time>2024-10-13T09:41:39Z</time>
      </trkpt>
      <trkpt lat="45.06021" lon="5.34359">
        <ele>201.4</ele>
        <time>2024-10-13T09:42:07Z</time>
      </trkpt>
      <trkpt lat="45.06028" lon="5.34369">
        <ele>200.7</ele>
        <time>2024-10-13T09:42:30Z</time>
      </trkpt>
      <trkpt lat="45.06033" lon="5.3438">
        <ele>200.7</ele>
        <time>2024-10-13T09:43:02Z</time>
      </trkpt>
      <trkpt lat="45.0603" lon="5.34393">
        <ele>200.8</ele>
        <time>2024-10-13T09:43:11Z</time>
      </trkpt>
      <trkpt lat="45.06031" lon="5.34406">
        <ele>200.7</ele>
        <time>2024-10-13T09:43:22Z</time>
      </trkpt>
      <trkpt lat="45.06033" lon="5.34419">
        <ele>200.7</ele>
        <time>2024-10-13T09:43:31Z</time>
      </trkpt>
      <trkpt lat="45.06034" lon="5.34432">
        <ele>199.2</ele>
        <time>2024-10-13T09:43:54Z</time>
      </trkpt>
      <trkpt lat="45.06038" lon="5.34444">
        <ele>200.6</ele>
        <time>2024-10-13T09:44:38Z</time>
      </trkpt>
      <trkpt lat="45.06036" lon="5.34457">
        <ele>200.9</ele>
        <time>2024-10-13T09:45:10Z</time>
      </trkpt>
      <trkpt lat="45.06033" lon="5.3447">
        <ele>200.8</ele>
        <time>2024-10-13T09:45:24Z</time>
      </trkpt>
      <trkpt lat="45.06031" lon="5.34483">
        <ele>200.7</ele>
        <time>2024-10-13T09:45:34Z</time>
      </trkpt>
      <trkpt lat="45.06032" lon="5.34497">
        <ele>201.1</ele>
        <time>2024-10-13T09:45:53Z</time>
      </trkpt>
      <trkpt lat="45.06034" lon="5.34509">
        <ele>200.7</ele>
        <time>2024-10-13T09:46:06Z</time>
      </trkpt>
      <trkpt lat="45.06032" lon="5.34522">
        <ele>200.8</ele>
        <time>2024-10-13T09:46:16Z</time>
      </trkpt>
      <trkpt lat="45.06033" lon="5.34535">
        <ele>200.9</ele>
        <time>2024-10-13T09:46:27Z</time>
      </trkpt>
      <trkpt lat="45.06039" lon="5.34546">
        <ele>201</ele>
        <time>2024-10-13T09:46:40Z</time>
      </trkpt>
      <trkpt lat="45.06046" lon="5.34556">
        <ele>200.7</ele>
        <time>2024-10-13T09:46:50Z</time>
      </trkpt>
      <trkpt lat="45.06046" lon="5.34569">
        <ele>200.5</ele>
        <time>2024-10-13T09:47:16Z</time>
      </trkpt>
      <trkpt lat="45.0605" lon="5.34581">
        <ele>200.6</ele>
        <time>2024-10-13T09:47:33Z</time>
      </trkpt>
      <trkpt lat="45.06042" lon="5.34586">
        <ele>200.4</ele>
        <time>2024-10-13T09:50:31Z</time>
      </trkpt>
      <trkpt lat="45.06035" lon="5.34596">
        <ele>201.2</ele>
        <time>2024-10-13T09:50:51Z</time>
      </trkpt>
      <trkpt lat="45.06026" lon="5.34597">
        <ele>203.8</ele>
        <time>2024-10-13T09:51:14Z</time>
      </trkpt>
      <trkpt lat="45.06017" lon="5.34595">
        <ele>210.9</ele>
        <time>2024-10-13T09:52:16Z</time>
      </trkpt>
      <trkpt lat="45.06025" lon="5.34601">
        <ele>215</ele>
        <time>2024-10-13T09:53:32Z</time>
      </trkpt>
      <trkpt lat="45.06026" lon="5.34614">
        <ele>216.1</ele>
        <time>2024-10-13T09:53:53Z</time>
      </trkpt>
      <trkpt lat="45.06022" lon="5.34625">
        <ele>219.2</ele>
        <time>2024-10-13T09:54:24Z</time>
      </trkpt>
      <trkpt lat="45.06012" lon="5.34626">
        <ele>219.6</ele>
        <time>2024-10-13T09:56:30Z</time>
      </trkpt>
      <trkpt lat="45.06021" lon="5.34621">
        <ele>224.9</ele>
        <time>2024-10-13T09:58:15Z</time>
      </trkpt>
      <trkpt lat="45.06031" lon="5.3462">
        <ele>225</ele>
        <time>2024-10-13T09:58:21Z</time>
      </trkpt>
      <trkpt lat="45.0604" lon="5.3462">
        <ele>225</ele>
        <time>2024-10-13T09:58:26Z</time>
      </trkpt>
      <trkpt lat="45.06053" lon="5.34611">
        <ele>225.3</ele>
        <time>2024-10-13T09:59:05Z</time>
      </trkpt>
      <trkpt lat="45.06064" lon="5.3461">
        <ele>225.3</ele>
        <time>2024-10-13T09:59:08Z</time>
      </trkpt>
      <trkpt lat="45.06074" lon="5.34609">
        <ele>225.6</ele>
        <time>2024-10-13T09:59:12Z</time>
      </trkpt>
      <trkpt lat="45.06066" lon="5.34601">
        <ele>225.6</ele>
        <time>2024-10-13T09:59:20Z</time>
      </trkpt>
      <trkpt lat="45.06056" lon="5.34598">
        <ele>225.6</ele>
        <time>2024-10-13T09:59:29Z</time>
      </trkpt>
      <trkpt lat="45.06045" lon="5.34595">
        <ele>225.7</ele>
        <time>2024-10-13T09:59:40Z</time>
      </trkpt>
      <trkpt lat="45.06055" lon="5.34591">
        <ele>225.7</ele>
        <time>2024-10-13T09:59:59Z</time>
      </trkpt>
      <trkpt lat="45.06047" lon="5.34582">
        <ele>226.2</ele>
        <time>2024-10-13T10:00:20Z</time>
      </trkpt>
      <trkpt lat="45.06038" lon="5.34583">
        <ele>226.3</ele>
        <time>2024-10-13T10:00:29Z</time>
      </trkpt>
      <trkpt lat="45.06047" lon="5.34582">
        <ele>226.4</ele>
        <time>2024-10-13T10:00:40Z</time>
      </trkpt>
      <trkpt lat="45.06031" lon="5.34578">
        <ele>226.2</ele>
        <time>2024-10-13T10:00:52Z</time>
      </trkpt>
      <trkpt lat="45.06022" lon="5.34577">
        <ele>226.4</ele>
        <time>2024-10-13T10:00:54Z</time>
      </trkpt>
      <trkpt lat="45.06013" lon="5.34575">
        <ele>226.4</ele>
        <time>2024-10-13T10:00:57Z</time>
      </trkpt>
      <trkpt lat="45.06004" lon="5.34572">
        <ele>227.1</ele>
        <time>2024-10-13T10:01:01Z</time>
      </trkpt>
      <trkpt lat="45.05999" lon="5.3456">
        <ele>227.6</ele>
        <time>2024-10-13T10:01:13Z</time>
      </trkpt>
      <trkpt lat="45.05998" lon="5.34545">
        <ele>228</ele>
        <time>2024-10-13T10:01:22Z</time>
      </trkpt>
      <trkpt lat="45.05997" lon="5.34532">
        <ele>228.5</ele>
        <time>2024-10-13T10:01:31Z</time>
      </trkpt>
      <trkpt lat="45.05993" lon="5.3452">
        <ele>228.9</ele>
        <time>2024-10-13T10:01:42Z</time>
      </trkpt>
      <trkpt lat="45.05989" lon="5.34508">
        <ele>230.2</ele>
        <time>2024-10-13T10:01:56Z</time>
      </trkpt>
      <trkpt lat="45.05984" lon="5.34497">
        <ele>232.9</ele>
        <time>2024-10-13T10:02:08Z</time>
      </trkpt>
      <trkpt lat="45.05979" lon="5.34486">
        <ele>237</ele>
        <time>2024-10-13T10:02:30Z</time>
      </trkpt>
      <trkpt lat="45.0597" lon="5.34481">
        <ele>239.2</ele>
        <time>2024-10-13T10:02:48Z</time>
      </trkpt>
      <trkpt lat="45.05962" lon="5.34477">
        <ele>240.9</ele>
        <time>2024-10-13T10:03:01Z</time>
      </trkpt>
      <trkpt lat="45.05953" lon="5.34473">
        <ele>244</ele>
        <time>2024-10-13T10:03:26Z</time>
      </trkpt>
      <trkpt lat="45.05944" lon="5.34468">
        <ele>245.9</ele>
        <time>2024-10-13T10:03:43Z</time>
      </trkpt>
      <trkpt lat="45.05935" lon="5.34467">
        <ele>247.6</ele>
        <time>2024-10-13T10:04:08Z</time>
      </trkpt>
      <trkpt lat="45.0593" lon="5.34477">
        <ele>251.4</ele>
        <time>2024-10-13T10:05:03Z</time>
      </trkpt>
      <trkpt lat="45.05921" lon="5.3448">
        <ele>254.5</ele>
        <time>2024-10-13T10:05:27Z</time>
      </trkpt>
      <trkpt lat="45.05911" lon="5.34482">
        <ele>256.5</ele>
        <time>2024-10-13T10:05:45Z</time>
      </trkpt>
      <trkpt lat="45.05902" lon="5.34482">
        <ele>258.1</ele>
        <time>2024-10-13T10:06:05Z</time>
      </trkpt>
      <trkpt lat="45.05893" lon="5.34482">
        <ele>259.6</ele>
        <time>2024-10-13T10:06:19Z</time>
      </trkpt>
      <trkpt lat="45.05884" lon="5.3448">
        <ele>261.3</ele>
        <time>2024-10-13T10:06:35Z</time>
      </trkpt>
      <trkpt lat="45.05875" lon="5.34481">
        <ele>263.3</ele>
        <time>2024-10-13T10:06:50Z</time>
      </trkpt>
      <trkpt lat="45.05866" lon="5.3448">
        <ele>264.8</ele>
        <time>2024-10-13T10:07:06Z</time>
      </trkpt>
      <trkpt lat="45.05856" lon="5.34482">
        <ele>266.6</ele>
        <time>2024-10-13T10:07:24Z</time>
      </trkpt>
      <trkpt lat="45.05847" lon="5.34482">
        <ele>268</ele>
        <time>2024-10-13T10:07:36Z</time>
      </trkpt>
      <trkpt lat="45.05837" lon="5.34481">
        <ele>268.9</ele>
        <time>2024-10-13T10:07:57Z</time>
      </trkpt>
      <trkpt lat="45.05828" lon="5.34476">
        <ele>269.7</ele>
        <time>2024-10-13T10:08:17Z</time>
      </trkpt>
      <trkpt lat="45.05819" lon="5.34473">
        <ele>269.8</ele>
        <time>2024-10-13T10:08:31Z</time>
      </trkpt>
      <trkpt lat="45.05809" lon="5.34471">
        <ele>269.9</ele>
        <time>2024-10-13T10:08:48Z</time>
      </trkpt>
      <trkpt lat="45.05801" lon="5.34469">
        <ele>270.1</ele>
        <time>2024-10-13T10:09:13Z</time>
      </trkpt>
      <trkpt lat="45.05792" lon="5.34472">
        <ele>270</ele>
        <time>2024-10-13T10:09:32Z</time>
      </trkpt>
      <trkpt lat="45.05783" lon="5.3447">
        <ele>270.7</ele>
        <time>2024-10-13T10:10:32Z</time>
      </trkpt>
      <trkpt lat="45.05774" lon="5.34471">
        <ele>271.8</ele>
        <time>2024-10-13T10:10:45Z</time>
      </trkpt>
      <trkpt lat="45.05765" lon="5.34474">
        <ele>273.1</ele>
        <time>2024-10-13T10:11:00Z</time>
      </trkpt>
      <trkpt lat="45.05757" lon="5.34481">
        <ele>274.6</ele>
        <time>2024-10-13T10:11:14Z</time>
      </trkpt>
      <trkpt lat="45.05749" lon="5.34486">
        <ele>275.7</ele>
        <time>2024-10-13T10:11:25Z</time>
      </trkpt>
      <trkpt lat="45.05742" lon="5.34495">
        <ele>276.1</ele>
        <time>2024-10-13T10:11:39Z</time>
      </trkpt>
      <trkpt lat="45.05735" lon="5.34503">
        <ele>276.9</ele>
        <time>2024-10-13T10:11:51Z</time>
      </trkpt>
      <trkpt lat="45.05726" lon="5.34509">
        <ele>279.4</ele>
        <time>2024-10-13T10:12:24Z</time>
      </trkpt>
      <trkpt lat="45.0572" lon="5.34519">
        <ele>282.1</ele>
        <time>2024-10-13T10:12:51Z</time>
      </trkpt>
      <trkpt lat="45.05716" lon="5.3453">
        <ele>283.4</ele>
        <time>2024-10-13T10:13:05Z</time>
      </trkpt>
      <trkpt lat="45.05707" lon="5.34535">
        <ele>284</ele>
        <time>2024-10-13T10:13:21Z</time>
      </trkpt>
      <trkpt lat="45.05698" lon="5.34541">
        <ele>284.3</ele>
        <time>2024-10-13T10:13:34Z</time>
      </trkpt>
      <trkpt lat="45.0569" lon="5.34547">
        <ele>284.3</ele>
        <time>2024-10-13T10:13:44Z</time>
      </trkpt>
      <trkpt lat="45.05681" lon="5.34551">
        <ele>284.2</ele>
        <time>2024-10-13T10:13:55Z</time>
      </trkpt>
      <trkpt lat="45.05673" lon="5.34556">
        <ele>284.4</ele>
        <time>2024-10-13T10:14:06Z</time>
      </trkpt>
      <trkpt lat="45.05663" lon="5.34556">
        <ele>284.3</ele>
        <time>2024-10-13T10:14:18Z</time>
      </trkpt>
      <trkpt lat="45.05654" lon="5.34558">
        <ele>284.1</ele>
        <time>2024-10-13T10:14:33Z</time>
      </trkpt>
      <trkpt lat="45.05644" lon="5.3456">
        <ele>284.6</ele>
        <time>2024-10-13T10:14:44Z</time>
      </trkpt>
      <trkpt lat="45.05635" lon="5.3456">
        <ele>284.6</ele>
        <time>2024-10-13T10:14:56Z</time>
      </trkpt>
      <trkpt lat="45.05625" lon="5.34562">
        <ele>284.7</ele>
        <time>2024-10-13T10:16:39Z</time>
      </trkpt>
      <trkpt lat="45.05616" lon="5.34563">
        <ele>284.8</ele>
        <time>2024-10-13T10:16:52Z</time>
      </trkpt>
      <trkpt lat="45.05607" lon="5.34561">
        <ele>284.8</ele>
        <time>2024-10-13T10:17:08Z</time>
      </trkpt>
      <trkpt lat="45.05598" lon="5.34564">
        <ele>284.9</ele>
        <time>2024-10-13T10:17:29Z</time>
      </trkpt>
      <trkpt lat="45.05588" lon="5.34561">
        <ele>284.7</ele>
        <time>2024-10-13T10:17:44Z</time>
      </trkpt>
      <trkpt lat="45.05579" lon="5.34557">
        <ele>285.2</ele>
        <time>2024-10-13T10:17:57Z</time>
      </trkpt>
      <trkpt lat="45.0557" lon="5.34556">
        <ele>285.3</ele>
        <time>2024-10-13T10:18:07Z</time>
      </trkpt>
      <trkpt lat="45.0556" lon="5.34556">
        <ele>285.4</ele>
        <time>2024-10-13T10:18:17Z</time>
      </trkpt>
      <trkpt lat="45.05551" lon="5.34556">
        <ele>285.4</ele>
        <time>2024-10-13T10:18:26Z</time>
      </trkpt>
      <trkpt lat="45.05542" lon="5.34556">
        <ele>285.5</ele>
        <time>2024-10-13T10:18:42Z</time>
      </trkpt>
      <trkpt lat="45.05532" lon="5.34555">
        <ele>285.6</ele>
        <time>2024-10-13T10:18:54Z</time>
      </trkpt>
      <trkpt lat="45.05523" lon="5.34556">
        <ele>285.8</ele>
        <time>2024-10-13T10:19:06Z</time>
      </trkpt>
      <trkpt lat="45.05514" lon="5.34561">
        <ele>286</ele>
        <time>2024-10-13T10:19:16Z</time>
      </trkpt>
      <trkpt lat="45.05504" lon="5.34562">
        <ele>286.2</ele>
        <time>2024-10-13T10:19:26Z</time>
      </trkpt>
      <trkpt lat="45.05495" lon="5.34563">
        <ele>286.4</ele>
        <time>2024-10-13T10:19:35Z</time>
      </trkpt>
      <trkpt lat="45.05485" lon="5.34563">
        <ele>286.5</ele>
        <time>2024-10-13T10:19:45Z</time>
      </trkpt>
      <trkpt lat="45.05475" lon="5.34565">
        <ele>286.2</ele>
        <time>2024-10-13T10:19:55Z</time>
      </trkpt>
      <trkpt lat="45.05467" lon="5.3457">
        <ele>286.3</ele>
        <time>2024-10-13T10:20:05Z</time>
      </trkpt>
      <trkpt lat="45.05458" lon="5.34575">
        <ele>286.4</ele>
        <time>2024-10-13T10:20:15Z</time>
      </trkpt>
      <trkpt lat="45.05448" lon="5.34577">
        <ele>286.1</ele>
        <time>2024-10-13T10:20:26Z</time>
      </trkpt>
      <trkpt lat="45.05439" lon="5.34578">
        <ele>286.4</ele>
        <time>2024-10-13T10:20:39Z</time>
      </trkpt>
      <trkpt lat="45.0543" lon="5.34578">
        <ele>286.5</ele>
        <time>2024-10-13T10:20:49Z</time>
      </trkpt>
      <trkpt lat="45.05421" lon="5.34581">
        <ele>286.7</ele>
        <time>2024-10-13T10:21:00Z</time>
      </trkpt>
      <trkpt lat="45.05411" lon="5.34581">
        <ele>286.7</ele>
        <time>2024-10-13T10:21:09Z</time>
      </trkpt>
      <trkpt lat="45.05401" lon="5.34581">
        <ele>286.6</ele>
        <time>2024-10-13T10:21:19Z</time>
      </trkpt>
      <trkpt lat="45.05391" lon="5.34582">
        <ele>286.7</ele>
        <time>2024-10-13T10:21:32Z</time>
      </trkpt>
      <trkpt lat="45.05381" lon="5.34582">
        <ele>287.2</ele>
        <time>2024-10-13T10:21:42Z</time>
      </trkpt>
      <trkpt lat="45.05372" lon="5.34583">
        <ele>287.4</ele>
        <time>2024-10-13T10:21:52Z</time>
      </trkpt>
      <trkpt lat="45.05363" lon="5.34583">
        <ele>287.7</ele>
        <time>2024-10-13T10:22:02Z</time>
      </trkpt>
      <trkpt lat="45.05353" lon="5.34584">
        <ele>288</ele>
        <time>2024-10-13T10:22:13Z</time>
      </trkpt>
      <trkpt lat="45.05343" lon="5.34583">
        <ele>288.2</ele>
        <time>2024-10-13T10:22:24Z</time>
      </trkpt>
      <trkpt lat="45.05334" lon="5.34582">
        <ele>288</ele>
        <time>2024-10-13T10:22:36Z</time>
      </trkpt>
      <trkpt lat="45.05325" lon="5.34579">
        <ele>287.7</ele>
        <time>2024-10-13T10:22:46Z</time>
      </trkpt>
      <trkpt lat="45.05316" lon="5.34577">
        <ele>287.4</ele>
        <time>2024-10-13T10:22:56Z</time>
      </trkpt>
      <trkpt lat="45.05307" lon="5.34573">
        <ele>286.7</ele>
        <time>2024-10-13T10:23:08Z</time>
      </trkpt>
      <trkpt lat="45.05297" lon="5.3457">
        <ele>286.2</ele>
        <time>2024-10-13T10:23:17Z</time>
      </trkpt>
      <trkpt lat="45.05288" lon="5.34567">
        <ele>285.5</ele>
        <time>2024-10-13T10:23:26Z</time>
      </trkpt>
      <trkpt lat="45.05279" lon="5.34564">
        <ele>284.4</ele>
        <time>2024-10-13T10:23:35Z</time>
      </trkpt>
      <trkpt lat="45.0527" lon="5.34561">
        <ele>283.5</ele>
        <time>2024-10-13T10:23:44Z</time>
      </trkpt>
      <trkpt lat="45.0526" lon="5.34559">
        <ele>282.4</ele>
        <time>2024-10-13T10:23:55Z</time>
      </trkpt>
      <trkpt lat="45.05251" lon="5.34556">
        <ele>281.3</ele>
        <time>2024-10-13T10:24:06Z</time>
      </trkpt>
      <trkpt lat="45.05242" lon="5.34553">
        <ele>280.1</ele>
        <time>2024-10-13T10:24:19Z</time>
      </trkpt>
      <trkpt lat="45.05233" lon="5.34549">
        <ele>279</ele>
        <time>2024-10-13T10:24:34Z</time>
      </trkpt>
      <trkpt lat="45.05224" lon="5.34545">
        <ele>278.3</ele>
        <time>2024-10-13T10:24:43Z</time>
      </trkpt>
      <trkpt lat="45.05215" lon="5.34542">
        <ele>277.5</ele>
        <time>2024-10-13T10:24:59Z</time>
      </trkpt>
      <trkpt lat="45.05206" lon="5.34536">
        <ele>277.1</ele>
        <time>2024-10-13T10:25:10Z</time>
      </trkpt>
      <trkpt lat="45.05198" lon="5.34532">
        <ele>276.4</ele>
        <time>2024-10-13T10:25:20Z</time>
      </trkpt>
      <trkpt lat="45.05189" lon="5.34525">
        <ele>275</ele>
        <time>2024-10-13T10:25:36Z</time>
      </trkpt>
      <trkpt lat="45.05182" lon="5.34516">
        <ele>274</ele>
        <time>2024-10-13T10:25:46Z</time>
      </trkpt>
      <trkpt lat="45.05174" lon="5.3451">
        <ele>272.8</ele>
        <time>2024-10-13T10:25:59Z</time>
      </trkpt>
      <trkpt lat="45.05164" lon="5.3451">
        <ele>271.3</ele>
        <time>2024-10-13T10:26:13Z</time>
      </trkpt>
      <trkpt lat="45.05155" lon="5.34512">
        <ele>269.9</ele>
        <time>2024-10-13T10:26:25Z</time>
      </trkpt>
      <trkpt lat="45.05145" lon="5.34514">
        <ele>268.7</ele>
        <time>2024-10-13T10:26:40Z</time>
      </trkpt>
      <trkpt lat="45.05136" lon="5.34516">
        <ele>267.9</ele>
        <time>2024-10-13T10:26:50Z</time>
      </trkpt>
      <trkpt lat="45.05127" lon="5.34518">
        <ele>267.3</ele>
        <time>2024-10-13T10:26:59Z</time>
      </trkpt>
      <trkpt lat="45.05118" lon="5.34521">
        <ele>266.6</ele>
        <time>2024-10-13T10:27:09Z</time>
      </trkpt>
      <trkpt lat="45.05109" lon="5.34527">
        <ele>266</ele>
        <time>2024-10-13T10:27:20Z</time>
      </trkpt>
      <trkpt lat="45.05101" lon="5.34534">
        <ele>265.2</ele>
        <time>2024-10-13T10:27:30Z</time>
      </trkpt>
      <trkpt lat="45.05092" lon="5.34541">
        <ele>264.4</ele>
        <time>2024-10-13T10:27:42Z</time>
      </trkpt>
      <trkpt lat="45.05083" lon="5.34547">
        <ele>263.7</ele>
        <time>2024-10-13T10:27:51Z</time>
      </trkpt>
      <trkpt lat="45.05074" lon="5.3455">
        <ele>262.7</ele>
        <time>2024-10-13T10:28:01Z</time>
      </trkpt>
      <trkpt lat="45.05066" lon="5.34557">
        <ele>261.9</ele>
        <time>2024-10-13T10:28:13Z</time>
      </trkpt>
      <trkpt lat="45.05058" lon="5.34563">
        <ele>260.5</ele>
        <time>2024-10-13T10:28:25Z</time>
      </trkpt>
      <trkpt lat="45.05048" lon="5.34563">
        <ele>259.2</ele>
        <time>2024-10-13T10:29:05Z</time>
      </trkpt>
      <trkpt lat="45.0504" lon="5.34567">
        <ele>257.7</ele>
        <time>2024-10-13T10:29:26Z</time>
      </trkpt>
      <trkpt lat="45.05033" lon="5.34576">
        <ele>255.7</ele>
        <time>2024-10-13T10:29:41Z</time>
      </trkpt>
      <trkpt lat="45.05024" lon="5.34581">
        <ele>253.8</ele>
        <time>2024-10-13T10:29:54Z</time>
      </trkpt>
      <trkpt lat="45.05014" lon="5.34584">
        <ele>252.4</ele>
        <time>2024-10-13T10:30:06Z</time>
      </trkpt>
      <trkpt lat="45.05006" lon="5.34582">
        <ele>251.5</ele>
        <time>2024-10-13T10:30:20Z</time>
      </trkpt>
      <trkpt lat="45.04997" lon="5.34579">
        <ele>251</ele>
        <time>2024-10-13T10:31:48Z</time>
      </trkpt>
      <trkpt lat="45.05002" lon="5.34569">
        <ele>252.3</ele>
        <time>2024-10-13T10:35:32Z</time>
      </trkpt>
      <trkpt lat="45.05006" lon="5.34556">
        <ele>251.8</ele>
        <time>2024-10-13T10:36:44Z</time>
      </trkpt>
      <trkpt lat="45.05013" lon="5.34547">
        <ele>251.1</ele>
        <time>2024-10-13T10:36:54Z</time>
      </trkpt>
      <trkpt lat="45.0502" lon="5.3454">
        <ele>250.5</ele>
        <time>2024-10-13T10:37:10Z</time>
      </trkpt>
      <trkpt lat="45.05029" lon="5.34533">
        <ele>250.1</ele>
        <time>2024-10-13T10:37:23Z</time>
      </trkpt>
      <trkpt lat="45.05037" lon="5.34527">
        <ele>250.1</ele>
        <time>2024-10-13T10:37:33Z</time>
      </trkpt>
      <trkpt lat="45.05045" lon="5.3452">
        <ele>249.8</ele>
        <time>2024-10-13T10:37:46Z</time>
      </trkpt>
      <trkpt lat="45.05053" lon="5.34513">
        <ele>249.8</ele>
        <time>2024-10-13T10:37:57Z</time>
      </trkpt>
      <trkpt lat="45.05061" lon="5.34507">
        <ele>249</ele>
        <time>2024-10-13T10:38:10Z</time>
      </trkpt>
      <trkpt lat="45.05069" lon="5.345">
        <ele>248.8</ele>
        <time>2024-10-13T10:38:21Z</time>
      </trkpt>
      <trkpt lat="45.05074" lon="5.3449">
        <ele>248.8</ele>
        <time>2024-10-13T10:38:30Z</time>
      </trkpt>
      <trkpt lat="45.05079" lon="5.34479">
        <ele>248.6</ele>
        <time>2024-10-13T10:38:39Z</time>
      </trkpt>
      <trkpt lat="45.05085" lon="5.34469">
        <ele>248.6</ele>
        <time>2024-10-13T10:39:19Z</time>
      </trkpt>
      <trkpt lat="45.05094" lon="5.34463">
        <ele>247.7</ele>
        <time>2024-10-13T10:39:41Z</time>
      </trkpt>
      <trkpt lat="45.05103" lon="5.34459">
        <ele>247.2</ele>
        <time>2024-10-13T10:39:51Z</time>
      </trkpt>
      <trkpt lat="45.05112" lon="5.34453">
        <ele>247.7</ele>
        <time>2024-10-13T10:40:00Z</time>
      </trkpt>
      <trkpt lat="45.0512" lon="5.34449">
        <ele>247.1</ele>
        <time>2024-10-13T10:40:08Z</time>
      </trkpt>
      <trkpt lat="45.0513" lon="5.34444">
        <ele>246.5</ele>
        <time>2024-10-13T10:40:18Z</time>
      </trkpt>
      <trkpt lat="45.05138" lon="5.34438">
        <ele>246</ele>
        <time>2024-10-13T10:40:26Z</time>
      </trkpt>
      <trkpt lat="45.05147" lon="5.34433">
        <ele>245.7</ele>
        <time>2024-10-13T10:40:34Z</time>
      </trkpt>
      <trkpt lat="45.05157" lon="5.3443">
        <ele>245</ele>
        <time>2024-10-13T10:40:42Z</time>
      </trkpt>
      <trkpt lat="45.05166" lon="5.34427">
        <ele>244.5</ele>
        <time>2024-10-13T10:40:50Z</time>
      </trkpt>
      <trkpt lat="45.05174" lon="5.34423">
        <ele>244.2</ele>
        <time>2024-10-13T10:40:58Z</time>
      </trkpt>
      <trkpt lat="45.05184" lon="5.34418">
        <ele>243.7</ele>
        <time>2024-10-13T10:41:07Z</time>
      </trkpt>
      <trkpt lat="45.05192" lon="5.34414">
        <ele>243</ele>
        <time>2024-10-13T10:41:15Z</time>
      </trkpt>
      <trkpt lat="45.05184" lon="5.34407">
        <ele>241.2</ele>
        <time>2024-10-13T10:41:33Z</time>
      </trkpt>
      <trkpt lat="45.05174" lon="5.34405">
        <ele>240.4</ele>
        <time>2024-10-13T10:41:42Z</time>
      </trkpt>
      <trkpt lat="45.05172" lon="5.34392">
        <ele>239.2</ele>
        <time>2024-10-13T10:41:53Z</time>
      </trkpt>
      <trkpt lat="45.05179" lon="5.344">
        <ele>239.1</ele>
        <time>2024-10-13T10:43:18Z</time>
      </trkpt>
      <trkpt lat="45.05188" lon="5.34403">
        <ele>240.1</ele>
        <time>2024-10-13T10:43:36Z</time>
      </trkpt>
      <trkpt lat="45.05197" lon="5.34407">
        <ele>241.8</ele>
        <time>2024-10-13T10:43:55Z</time>
      </trkpt>
      <trkpt lat="45.05188" lon="5.3441">
        <ele>242</ele>
        <time>2024-10-13T10:44:53Z</time>
      </trkpt>
      <trkpt lat="45.05179" lon="5.3441">
        <ele>240.5</ele>
        <time>2024-10-13T10:45:07Z</time>
      </trkpt>
      <trkpt lat="45.0517" lon="5.34405">
        <ele>239.4</ele>
        <time>2024-10-13T10:45:21Z</time>
      </trkpt>
      <trkpt lat="45.05174" lon="5.34394">
        <ele>237.8</ele>
        <time>2024-10-13T10:47:36Z</time>
      </trkpt>
      <trkpt lat="45.0517" lon="5.34405">
        <ele>238.6</ele>
        <time>2024-10-13T10:59:28Z</time>
      </trkpt>
      <trkpt lat="45.05179" lon="5.34406">
        <ele>238.7</ele>
        <time>2024-10-13T11:03:38Z</time>
      </trkpt>
      <trkpt lat="45.05172" lon="5.34398">
        <ele>238.5</ele>
        <time>2024-10-13T11:15:59Z</time>
      </trkpt>
      <trkpt lat="45.05181" lon="5.34402">
        <ele>239.3</ele>
        <time>2024-10-13T11:22:49Z</time>
      </trkpt>
      <trkpt lat="45.05172" lon="5.344">
        <ele>240</ele>
        <time>2024-10-13T11:25:02Z</time>
      </trkpt>
      <trkpt lat="45.05181" lon="5.34402">
        <ele>240.6</ele>
        <time>2024-10-13T11:28:28Z</time>
      </trkpt>
      <trkpt lat="45.0519" lon="5.34404">
        <ele>241.5</ele>
        <time>2024-10-13T11:28:40Z</time>
      </trkpt>
      <trkpt lat="45.05198" lon="5.34407">
        <ele>242.8</ele>
        <time>2024-10-13T11:28:52Z</time>
      </trkpt>
      <trkpt lat="45.05208" lon="5.34407">
        <ele>242.7</ele>
        <time>2024-10-13T11:29:04Z</time>
      </trkpt>
      <trkpt lat="45.05216" lon="5.34402">
        <ele>242.2</ele>
        <time>2024-10-13T11:29:17Z</time>
      </trkpt>
      <trkpt lat="45.05223" lon="5.34393">
        <ele>241.4</ele>
        <time>2024-10-13T11:29:49Z</time>
      </trkpt>
      <trkpt lat="45.05233" lon="5.34394">
        <ele>241.1</ele>
        <time>2024-10-13T11:30:00Z</time>
      </trkpt>
      <trkpt lat="45.05242" lon="5.3439">
        <ele>240.5</ele>
        <time>2024-10-13T11:30:48Z</time>
      </trkpt>
      <trkpt lat="45.0525" lon="5.34398">
        <ele>239.8</ele>
        <time>2024-10-13T11:31:09Z</time>
      </trkpt>
      <trkpt lat="45.05257" lon="5.34405">
        <ele>239.1</ele>
        <time>2024-10-13T11:31:32Z</time>
      </trkpt>
      <trkpt lat="45.05266" lon="5.34402">
        <ele>238.3</ele>
        <time>2024-10-13T11:31:45Z</time>
      </trkpt>
      <trkpt lat="45.05275" lon="5.34397">
        <ele>237.5</ele>
        <time>2024-10-13T11:31:55Z</time>
      </trkpt>
      <trkpt lat="45.05284" lon="5.34397">
        <ele>236.9</ele>
        <time>2024-10-13T11:32:06Z</time>
      </trkpt>
      <trkpt lat="45.05293" lon="5.34389">
        <ele>236.3</ele>
        <time>2024-10-13T11:32:15Z</time>
      </trkpt>
      <trkpt lat="45.053" lon="5.34381">
        <ele>235.9</ele>
        <time>2024-10-13T11:32:24Z</time>
      </trkpt>
      <trkpt lat="45.05309" lon="5.34374">
        <ele>235.7</ele>
        <time>2024-10-13T11:32:35Z</time>
      </trkpt>
      <trkpt lat="45.05319" lon="5.34372">
        <ele>235.6</ele>
        <time>2024-10-13T11:32:45Z</time>
      </trkpt>
      <trkpt lat="45.05328" lon="5.34377">
        <ele>235.6</ele>
        <time>2024-10-13T11:32:54Z</time>
      </trkpt>
      <trkpt lat="45.05337" lon="5.34381">
        <ele>235.7</ele>
        <time>2024-10-13T11:33:04Z</time>
      </trkpt>
      <trkpt lat="45.05345" lon="5.34387">
        <ele>236</ele>
        <time>2024-10-13T11:33:28Z</time>
      </trkpt>
      <trkpt lat="45.05354" lon="5.34392">
        <ele>235.9</ele>
        <time>2024-10-13T11:33:36Z</time>
      </trkpt>
      <trkpt lat="45.05363" lon="5.34398">
        <ele>235.8</ele>
        <time>2024-10-13T11:33:46Z</time>
      </trkpt>
      <trkpt lat="45.05369" lon="5.34408">
        <ele>235.7</ele>
        <time>2024-10-13T11:34:07Z</time>
      </trkpt>
      <trkpt lat="45.05379" lon="5.34411">
        <ele>235.7</ele>
        <time>2024-10-13T11:34:20Z</time>
      </trkpt>
      <trkpt lat="45.05388" lon="5.3441">
        <ele>235</ele>
        <time>2024-10-13T11:34:34Z</time>
      </trkpt>
      <trkpt lat="45.05397" lon="5.34407">
        <ele>233.9</ele>
        <time>2024-10-13T11:34:51Z</time>
      </trkpt>
      <trkpt lat="45.05407" lon="5.34408">
        <ele>232.9</ele>
        <time>2024-10-13T11:35:02Z</time>
      </trkpt>
      <trkpt lat="45.05416" lon="5.34407">
        <ele>232.2</ele>
        <time>2024-10-13T11:35:10Z</time>
      </trkpt>
      <trkpt lat="45.05425" lon="5.34404">
        <ele>231.1</ele>
        <time>2024-10-13T11:35:21Z</time>
      </trkpt>
      <trkpt lat="45.05435" lon="5.34405">
        <ele>229.8</ele>
        <time>2024-10-13T11:35:32Z</time>
      </trkpt>
      <trkpt lat="45.05444" lon="5.34403">
        <ele>228.3</ele>
        <time>2024-10-13T11:35:43Z</time>
      </trkpt>
      <trkpt lat="45.05453" lon="5.34403">
        <ele>227.4</ele>
        <time>2024-10-13T11:35:53Z</time>
      </trkpt>
      <trkpt lat="45.05462" lon="5.34401">
        <ele>226.3</ele>
        <time>2024-10-13T11:36:04Z</time>
      </trkpt>
      <trkpt lat="45.05471" lon="5.34404">
        <ele>225.1</ele>
        <time>2024-10-13T11:36:26Z</time>
      </trkpt>
      <trkpt lat="45.0548" lon="5.34402">
        <ele>223.8</ele>
        <time>2024-10-13T11:37:12Z</time>
      </trkpt>
      <trkpt lat="45.05489" lon="5.34397">
        <ele>223.6</ele>
        <time>2024-10-13T11:37:23Z</time>
      </trkpt>
      <trkpt lat="45.05498" lon="5.34395">
        <ele>222.9</ele>
        <time>2024-10-13T11:37:35Z</time>
      </trkpt>
      <trkpt lat="45.05508" lon="5.34394">
        <ele>222.4</ele>
        <time>2024-10-13T11:37:45Z</time>
      </trkpt>
      <trkpt lat="45.05517" lon="5.34393">
        <ele>222.2</ele>
        <time>2024-10-13T11:37:57Z</time>
      </trkpt>
      <trkpt lat="45.05522" lon="5.34382">
        <ele>222.2</ele>
        <time>2024-10-13T11:38:11Z</time>
      </trkpt>
      <trkpt lat="45.0553" lon="5.34377">
        <ele>221.8</ele>
        <time>2024-10-13T11:38:19Z</time>
      </trkpt>
      <trkpt lat="45.05537" lon="5.34368">
        <ele>221.6</ele>
        <time>2024-10-13T11:38:35Z</time>
      </trkpt>
      <trkpt lat="45.05544" lon="5.3436">
        <ele>221.5</ele>
        <time>2024-10-13T11:38:41Z</time>
      </trkpt>
      <trkpt lat="45.05551" lon="5.3435">
        <ele>221.7</ele>
        <time>2024-10-13T11:38:59Z</time>
      </trkpt>
      <trkpt lat="45.05559" lon="5.34343">
        <ele>221.7</ele>
        <time>2024-10-13T11:39:24Z</time>
      </trkpt>
      <trkpt lat="45.05557" lon="5.34329">
        <ele>221.8</ele>
        <time>2024-10-13T11:39:36Z</time>
      </trkpt>
      <trkpt lat="45.05555" lon="5.34314">
        <ele>222.2</ele>
        <time>2024-10-13T11:39:44Z</time>
      </trkpt>
      <trkpt lat="45.05555" lon="5.34302">
        <ele>221.7</ele>
        <time>2024-10-13T11:40:00Z</time>
      </trkpt>
      <trkpt lat="45.05564" lon="5.34299">
        <ele>222.1</ele>
        <time>2024-10-13T11:40:35Z</time>
      </trkpt>
      <trkpt lat="45.05575" lon="5.34299">
        <ele>222.5</ele>
        <time>2024-10-13T11:40:45Z</time>
      </trkpt>
      <trkpt lat="45.05586" lon="5.34297">
        <ele>222.4</ele>
        <time>2024-10-13T11:40:50Z</time>
      </trkpt>
      <trkpt lat="45.05596" lon="5.34299">
        <ele>222.3</ele>
        <time>2024-10-13T11:41:13Z</time>
      </trkpt>
      <trkpt lat="45.05587" lon="5.34297">
        <ele>222.3</ele>
        <time>2024-10-13T11:42:02Z</time>
      </trkpt>
      <trkpt lat="45.05586" lon="5.34283">
        <ele>222.4</ele>
        <time>2024-10-13T11:42:17Z</time>
      </trkpt>
      <trkpt lat="45.05595" lon="5.34281">
        <ele>222.6</ele>
        <time>2024-10-13T11:42:43Z</time>
      </trkpt>
      <trkpt lat="45.05603" lon="5.34277">
        <ele>223.6</ele>
        <time>2024-10-13T11:43:13Z</time>
      </trkpt>
      <trkpt lat="45.05611" lon="5.34269">
        <ele>224.1</ele>
        <time>2024-10-13T11:43:26Z</time>
      </trkpt>
      <trkpt lat="45.05617" lon="5.34258">
        <ele>225.3</ele>
        <time>2024-10-13T11:43:46Z</time>
      </trkpt>
      <trkpt lat="45.05626" lon="5.34251">
        <ele>226</ele>
        <time>2024-10-13T11:44:06Z</time>
      </trkpt>
      <trkpt lat="45.05634" lon="5.34245">
        <ele>227.2</ele>
        <time>2024-10-13T11:44:18Z</time>
      </trkpt>
      <trkpt lat="45.05641" lon="5.34236">
        <ele>227.8</ele>
        <time>2024-10-13T11:44:29Z</time>
      </trkpt>
      <trkpt lat="45.05647" lon="5.34225">
        <ele>228.3</ele>
        <time>2024-10-13T11:44:39Z</time>
      </trkpt>
      <trkpt lat="45.05652" lon="5.34214">
        <ele>228.8</ele>
        <time>2024-10-13T11:44:52Z</time>
      </trkpt>
      <trkpt lat="45.05656" lon="5.34202">
        <ele>229.5</ele>
        <time>2024-10-13T11:45:04Z</time>
      </trkpt>
      <trkpt lat="45.05656" lon="5.34189">
        <ele>230</ele>
        <time>2024-10-13T11:46:14Z</time>
      </trkpt>
      <trkpt lat="45.0566" lon="5.34177">
        <ele>230.3</ele>
        <time>2024-10-13T11:46:23Z</time>
      </trkpt>
      <trkpt lat="45.05665" lon="5.34165">
        <ele>230.9</ele>
        <time>2024-10-13T11:46:34Z</time>
      </trkpt>
      <trkpt lat="45.05667" lon="5.34152">
        <ele>231.6</ele>
        <time>2024-10-13T11:46:46Z</time>
      </trkpt>
      <trkpt lat="45.05672" lon="5.3414">
        <ele>232.1</ele>
        <time>2024-10-13T11:46:55Z</time>
      </trkpt>
      <trkpt lat="45.05678" lon="5.34128">
        <ele>232.5</ele>
        <time>2024-10-13T11:47:04Z</time>
      </trkpt>
      <trkpt lat="45.05684" lon="5.34117">
        <ele>233.2</ele>
        <time>2024-10-13T11:47:15Z</time>
      </trkpt>
      <trkpt lat="45.0569" lon="5.34108">
        <ele>233.7</ele>
        <time>2024-10-13T11:47:26Z</time>
      </trkpt>
      <trkpt lat="45.05696" lon="5.34098">
        <ele>234.5</ele>
        <time>2024-10-13T11:47:42Z</time>
      </trkpt>
      <trkpt lat="45.05704" lon="5.3409">
        <ele>234.9</ele>
        <time>2024-10-13T11:47:58Z</time>
      </trkpt>
      <trkpt lat="45.05713" lon="5.34085">
        <ele>235.4</ele>
        <time>2024-10-13T11:48:10Z</time>
      </trkpt>
      <trkpt lat="45.05721" lon="5.3408">
        <ele>235.9</ele>
        <time>2024-10-13T11:48:20Z</time>
      </trkpt>
      <trkpt lat="45.05729" lon="5.34073">
        <ele>236.4</ele>
        <time>2024-10-13T11:48:32Z</time>
      </trkpt>
      <trkpt lat="45.05737" lon="5.34066">
        <ele>236.8</ele>
        <time>2024-10-13T11:48:44Z</time>
      </trkpt>
      <trkpt lat="45.05742" lon="5.34054">
        <ele>237.6</ele>
        <time>2024-10-13T11:48:58Z</time>
      </trkpt>
      <trkpt lat="45.05736" lon="5.34044">
        <ele>237.9</ele>
        <time>2024-10-13T11:49:08Z</time>
      </trkpt>
      <trkpt lat="45.05727" lon="5.34039">
        <ele>237.8</ele>
        <time>2024-10-13T11:49:17Z</time>
      </trkpt>
      <trkpt lat="45.05717" lon="5.34041">
        <ele>238.2</ele>
        <time>2024-10-13T11:49:28Z</time>
      </trkpt>
      <trkpt lat="45.0571" lon="5.3405">
        <ele>238.2</ele>
        <time>2024-10-13T11:49:40Z</time>
      </trkpt>
      <trkpt lat="45.05703" lon="5.34058">
        <ele>238.7</ele>
        <time>2024-10-13T11:49:54Z</time>
      </trkpt>
      <trkpt lat="45.05696" lon="5.34066">
        <ele>239.3</ele>
        <time>2024-10-13T11:50:05Z</time>
      </trkpt>
      <trkpt lat="45.05689" lon="5.34075">
        <ele>239.6</ele>
        <time>2024-10-13T11:50:16Z</time>
      </trkpt>
      <trkpt lat="45.05684" lon="5.34087">
        <ele>240.3</ele>
        <time>2024-10-13T11:50:34Z</time>
      </trkpt>
      <trkpt lat="45.05677" lon="5.34095">
        <ele>240.9</ele>
        <time>2024-10-13T11:50:44Z</time>
      </trkpt>
      <trkpt lat="45.0567" lon="5.34102">
        <ele>241.6</ele>
        <time>2024-10-13T11:50:54Z</time>
      </trkpt>
      <trkpt lat="45.05665" lon="5.34115">
        <ele>241.8</ele>
        <time>2024-10-13T11:51:04Z</time>
      </trkpt>
      <trkpt lat="45.0566" lon="5.34127">
        <ele>242.4</ele>
        <time>2024-10-13T11:51:14Z</time>
      </trkpt>
      <trkpt lat="45.05654" lon="5.34136">
        <ele>242.9</ele>
        <time>2024-10-13T11:51:28Z</time>
      </trkpt>
      <trkpt lat="45.05648" lon="5.34147">
        <ele>243.4</ele>
        <time>2024-10-13T11:51:37Z</time>
      </trkpt>
      <trkpt lat="45.05644" lon="5.34158">
        <ele>244.1</ele>
        <time>2024-10-13T11:51:47Z</time>
      </trkpt>
      <trkpt lat="45.05637" lon="5.34167">
        <ele>244.6</ele>
        <time>2024-10-13T11:51:55Z</time>
      </trkpt>
      <trkpt lat="45.0563" lon="5.34177">
        <ele>245.5</ele>
        <time>2024-10-13T11:52:05Z</time>
      </trkpt>
      <trkpt lat="45.05622" lon="5.34185">
        <ele>246.2</ele>
        <time>2024-10-13T11:52:14Z</time>
      </trkpt>
      <trkpt lat="45.05611" lon="5.34193">
        <ele>247</ele>
        <time>2024-10-13T11:52:24Z</time>
      </trkpt>
      <trkpt lat="45.05603" lon="5.34201">
        <ele>247.5</ele>
        <time>2024-10-13T11:52:32Z</time>
      </trkpt>
      <trkpt lat="45.05595" lon="5.34208">
        <ele>248.2</ele>
        <time>2024-10-13T11:52:42Z</time>
      </trkpt>
      <trkpt lat="45.05587" lon="5.34216">
        <ele>248.8</ele>
        <time>2024-10-13T11:52:52Z</time>
      </trkpt>
      <trkpt lat="45.05578" lon="5.3422">
        <ele>249.5</ele>
        <time>2024-10-13T11:53:04Z</time>
      </trkpt>
      <trkpt lat="45.05569" lon="5.34223">
        <ele>250</ele>
        <time>2024-10-13T11:53:13Z</time>
      </trkpt>
      <trkpt lat="45.05571" lon="5.34211">
        <ele>251.6</ele>
        <time>2024-10-13T11:55:49Z</time>
      </trkpt>
      <trkpt lat="45.0557" lon="5.34196">
        <ele>253</ele>
        <time>2024-10-13T11:56:04Z</time>
      </trkpt>
      <trkpt lat="45.05572" lon="5.34183">
        <ele>254.8</ele>
        <time>2024-10-13T11:56:26Z</time>
      </trkpt>
      <trkpt lat="45.05569" lon="5.34171">
        <ele>256.5</ele>
        <time>2024-10-13T11:56:42Z</time>
      </trkpt>
      <trkpt lat="45.05566" lon="5.34159">
        <ele>258.4</ele>
        <time>2024-10-13T11:56:55Z</time>
      </trkpt>
      <trkpt lat="45.05562" lon="5.34147">
        <ele>260.8</ele>
        <time>2024-10-13T11:57:15Z</time>
      </trkpt>
      <trkpt lat="45.05553" lon="5.34142">
        <ele>263.4</ele>
        <time>2024-10-13T11:57:40Z</time>
      </trkpt>
      <trkpt lat="45.05544" lon="5.34141">
        <ele>265.1</ele>
        <time>2024-10-13T11:57:54Z</time>
      </trkpt>
      <trkpt lat="45.05535" lon="5.34141">
        <ele>267.6</ele>
        <time>2024-10-13T11:58:17Z</time>
      </trkpt>
      <trkpt lat="45.05526" lon="5.34137">
        <ele>269.7</ele>
        <time>2024-10-13T11:58:43Z</time>
      </trkpt>
      <trkpt lat="45.05517" lon="5.34135">
        <ele>271.3</ele>
        <time>2024-10-13T11:59:03Z</time>
      </trkpt>
      <trkpt lat="45.05508" lon="5.34133">
        <ele>273.1</ele>
        <time>2024-10-13T11:59:18Z</time>
      </trkpt>
      <trkpt lat="45.05498" lon="5.3413">
        <ele>275.4</ele>
        <time>2024-10-13T11:59:34Z</time>
      </trkpt>
      <trkpt lat="45.05491" lon="5.34123">
        <ele>278.4</ele>
        <time>2024-10-13T11:59:57Z</time>
      </trkpt>
      <trkpt lat="45.05487" lon="5.3411">
        <ele>281.4</ele>
        <time>2024-10-13T12:00:47Z</time>
      </trkpt>
      <trkpt lat="45.05496" lon="5.34106">
        <ele>281.7</ele>
        <time>2024-10-13T12:04:03Z</time>
      </trkpt>
      <trkpt lat="45.05506" lon="5.34106">
        <ele>281.6</ele>
        <time>2024-10-13T12:04:24Z</time>
      </trkpt>
      <trkpt lat="45.05515" lon="5.34101">
        <ele>281.6</ele>
        <time>2024-10-13T12:04:37Z</time>
      </trkpt>
      <trkpt lat="45.05524" lon="5.34098">
        <ele>281.6</ele>
        <time>2024-10-13T12:04:49Z</time>
      </trkpt>
      <trkpt lat="45.05533" lon="5.34096">
        <ele>281.8</ele>
        <time>2024-10-13T12:05:03Z</time>
      </trkpt>
      <trkpt lat="45.05542" lon="5.34091">
        <ele>282</ele>
        <time>2024-10-13T12:05:18Z</time>
      </trkpt>
      <trkpt lat="45.05552" lon="5.34091">
        <ele>282.1</ele>
        <time>2024-10-13T12:05:28Z</time>
      </trkpt>
      <trkpt lat="45.05561" lon="5.34093">
        <ele>281.9</ele>
        <time>2024-10-13T12:05:37Z</time>
      </trkpt>
      <trkpt lat="45.05552" lon="5.34094">
        <ele>281.9</ele>
        <time>2024-10-13T12:06:10Z</time>
      </trkpt>
      <trkpt lat="45.05561" lon="5.34092">
        <ele>282.3</ele>
        <time>2024-10-13T12:07:12Z</time>
      </trkpt>
      <trkpt lat="45.0557" lon="5.34088">
        <ele>282</ele>
        <time>2024-10-13T12:07:24Z</time>
      </trkpt>
      <trkpt lat="45.05579" lon="5.34087">
        <ele>281.8</ele>
        <time>2024-10-13T12:07:45Z</time>
      </trkpt>
      <trkpt lat="45.05588" lon="5.34087">
        <ele>281.7</ele>
        <time>2024-10-13T12:07:58Z</time>
      </trkpt>
      <trkpt lat="45.05597" lon="5.34083">
        <ele>281.6</ele>
        <time>2024-10-13T12:08:10Z</time>
      </trkpt>
      <trkpt lat="45.05606" lon="5.34079">
        <ele>281.5</ele>
        <time>2024-10-13T12:08:37Z</time>
      </trkpt>
      <trkpt lat="45.05615" lon="5.34075">
        <ele>281.5</ele>
        <time>2024-10-13T12:08:59Z</time>
      </trkpt>
      <trkpt lat="45.0562" lon="5.34064">
        <ele>281.3</ele>
        <time>2024-10-13T12:09:53Z</time>
      </trkpt>
      <trkpt lat="45.05624" lon="5.34052">
        <ele>281.3</ele>
        <time>2024-10-13T12:10:07Z</time>
      </trkpt>
      <trkpt lat="45.0563" lon="5.3404">
        <ele>281.2</ele>
        <time>2024-10-13T12:10:18Z</time>
      </trkpt>
      <trkpt lat="45.05638" lon="5.34033">
        <ele>281.1</ele>
        <time>2024-10-13T12:10:30Z</time>
      </trkpt>
      <trkpt lat="45.05647" lon="5.34027">
        <ele>281.2</ele>
        <time>2024-10-13T12:10:40Z</time>
      </trkpt>
      <trkpt lat="45.05655" lon="5.34021">
        <ele>281</ele>
        <time>2024-10-13T12:10:50Z</time>
      </trkpt>
      <trkpt lat="45.05663" lon="5.34014">
        <ele>280.7</ele>
        <time>2024-10-13T12:11:05Z</time>
      </trkpt>
      <trkpt lat="45.05671" lon="5.34008">
        <ele>280.6</ele>
        <time>2024-10-13T12:11:22Z</time>
      </trkpt>
      <trkpt lat="45.05679" lon="5.34003">
        <ele>280.5</ele>
        <time>2024-10-13T12:11:31Z</time>
      </trkpt>
      <trkpt lat="45.05688" lon="5.33998">
        <ele>280.3</ele>
        <time>2024-10-13T12:11:40Z</time>
      </trkpt>
      <trkpt lat="45.05697" lon="5.33993">
        <ele>280.2</ele>
        <time>2024-10-13T12:11:50Z</time>
      </trkpt>
      <trkpt lat="45.05706" lon="5.33988">
        <ele>280.1</ele>
        <time>2024-10-13T12:12:01Z</time>
      </trkpt>
      <trkpt lat="45.05714" lon="5.33983">
        <ele>279.9</ele>
        <time>2024-10-13T12:12:11Z</time>
      </trkpt>
      <trkpt lat="45.05723" lon="5.3398">
        <ele>279.7</ele>
        <time>2024-10-13T12:12:20Z</time>
      </trkpt>
      <trkpt lat="45.05732" lon="5.33977">
        <ele>279.6</ele>
        <time>2024-10-13T12:12:30Z</time>
      </trkpt>
      <trkpt lat="45.05741" lon="5.33977">
        <ele>279.5</ele>
        <time>2024-10-13T12:12:41Z</time>
      </trkpt>
      <trkpt lat="45.05751" lon="5.33977">
        <ele>279.5</ele>
        <time>2024-10-13T12:12:51Z</time>
      </trkpt>
      <trkpt lat="45.0576" lon="5.33979">
        <ele>279.7</ele>
        <time>2024-10-13T12:13:00Z</time>
      </trkpt>
      <trkpt lat="45.05769" lon="5.33981">
        <ele>279.6</ele>
        <time>2024-10-13T12:13:11Z</time>
      </trkpt>
      <trkpt lat="45.05779" lon="5.33981">
        <ele>279.6</ele>
        <time>2024-10-13T12:13:22Z</time>
      </trkpt>
      <trkpt lat="45.05788" lon="5.33982">
        <ele>279.6</ele>
        <time>2024-10-13T12:13:33Z</time>
      </trkpt>
      <trkpt lat="45.05797" lon="5.33983">
        <ele>279.3</ele>
        <time>2024-10-13T12:13:47Z</time>
      </trkpt>
      <trkpt lat="45.05806" lon="5.33986">
        <ele>278.7</ele>
        <time>2024-10-13T12:14:01Z</time>
      </trkpt>
      <trkpt lat="45.05815" lon="5.3399">
        <ele>278.7</ele>
        <time>2024-10-13T12:14:12Z</time>
      </trkpt>
      <trkpt lat="45.05823" lon="5.33997">
        <ele>278.6</ele>
        <time>2024-10-13T12:14:24Z</time>
      </trkpt>
      <trkpt lat="45.05832" lon="5.34004">
        <ele>278.6</ele>
        <time>2024-10-13T12:14:35Z</time>
      </trkpt>
      <trkpt lat="45.0584" lon="5.34011">
        <ele>278.4</ele>
        <time>2024-10-13T12:14:45Z</time>
      </trkpt>
      <trkpt lat="45.05848" lon="5.34017">
        <ele>278.4</ele>
        <time>2024-10-13T12:14:56Z</time>
      </trkpt>
      <trkpt lat="45.05856" lon="5.34023">
        <ele>278.7</ele>
        <time>2024-10-13T12:15:10Z</time>
      </trkpt>
      <trkpt lat="45.05866" lon="5.34025">
        <ele>278.6</ele>
        <time>2024-10-13T12:15:20Z</time>
      </trkpt>
      <trkpt lat="45.05875" lon="5.34025">
        <ele>278.1</ele>
        <time>2024-10-13T12:15:30Z</time>
      </trkpt>
      <trkpt lat="45.05884" lon="5.34028">
        <ele>278.6</ele>
        <time>2024-10-13T12:15:38Z</time>
      </trkpt>
      <trkpt lat="45.05893" lon="5.34029">
        <ele>278.5</ele>
        <time>2024-10-13T12:15:51Z</time>
      </trkpt>
      <trkpt lat="45.05901" lon="5.34037">
        <ele>276.9</ele>
        <time>2024-10-13T12:16:11Z</time>
      </trkpt>
      <trkpt lat="45.05909" lon="5.34043">
        <ele>275.4</ele>
        <time>2024-10-13T12:16:29Z</time>
      </trkpt>
      <trkpt lat="45.05917" lon="5.3405">
        <ele>274</ele>
        <time>2024-10-13T12:16:43Z</time>
      </trkpt>
      <trkpt lat="45.05926" lon="5.34051">
        <ele>271.7</ele>
        <time>2024-10-13T12:17:07Z</time>
      </trkpt>
      <trkpt lat="45.05935" lon="5.34047">
        <ele>270.1</ele>
        <time>2024-10-13T12:17:20Z</time>
      </trkpt>
      <trkpt lat="45.05944" lon="5.34043">
        <ele>268.2</ele>
        <time>2024-10-13T12:17:32Z</time>
      </trkpt>
      <trkpt lat="45.05953" lon="5.34039">
        <ele>265.5</ele>
        <time>2024-10-13T12:18:14Z</time>
      </trkpt>
      <trkpt lat="45.05961" lon="5.34032">
        <ele>262.6</ele>
        <time>2024-10-13T12:18:37Z</time>
      </trkpt>
      <trkpt lat="45.0597" lon="5.34035">
        <ele>260.3</ele>
        <time>2024-10-13T12:18:52Z</time>
      </trkpt>
      <trkpt lat="45.05979" lon="5.34036">
        <ele>258.1</ele>
        <time>2024-10-13T12:19:06Z</time>
      </trkpt>
      <trkpt lat="45.05977" lon="5.34049">
        <ele>256.1</ele>
        <time>2024-10-13T12:20:47Z</time>
      </trkpt>
      <trkpt lat="45.05984" lon="5.34058">
        <ele>255.8</ele>
        <time>2024-10-13T12:20:55Z</time>
      </trkpt>
      <trkpt lat="45.05991" lon="5.34068">
        <ele>255.1</ele>
        <time>2024-10-13T12:21:03Z</time>
      </trkpt>
      <trkpt lat="45.05997" lon="5.34078">
        <ele>254.2</ele>
        <time>2024-10-13T12:21:30Z</time>
      </trkpt>
      <trkpt lat="45.06002" lon="5.34089">
        <ele>253.4</ele>
        <time>2024-10-13T12:21:47Z</time>
      </trkpt>
      <trkpt lat="45.06007" lon="5.341">
        <ele>251.4</ele>
        <time>2024-10-13T12:22:05Z</time>
      </trkpt>
      <trkpt lat="45.06011" lon="5.34111">
        <ele>248.9</ele>
        <time>2024-10-13T12:22:18Z</time>
      </trkpt>
      <trkpt lat="45.06005" lon="5.34121">
        <ele>245.7</ele>
        <time>2024-10-13T12:22:40Z</time>
      </trkpt>
      <trkpt lat="45.05997" lon="5.34126">
        <ele>242.9</ele>
        <time>2024-10-13T12:22:56Z</time>
      </trkpt>
      <trkpt lat="45.05992" lon="5.34137">
        <ele>240</ele>
        <time>2024-10-13T12:23:15Z</time>
      </trkpt>
      <trkpt lat="45.05984" lon="5.34143">
        <ele>238.9</ele>
        <time>2024-10-13T12:25:04Z</time>
      </trkpt>
      <trkpt lat="45.05978" lon="5.34153">
        <ele>236.3</ele>
        <time>2024-10-13T12:25:28Z</time>
      </trkpt>
      <trkpt lat="45.05973" lon="5.34164">
        <ele>233.6</ele>
        <time>2024-10-13T12:26:06Z</time>
      </trkpt>
      <trkpt lat="45.05973" lon="5.34177">
        <ele>230</ele>
        <time>2024-10-13T12:26:32Z</time>
      </trkpt>
      <trkpt lat="45.05966" lon="5.34185">
        <ele>227.1</ele>
        <time>2024-10-13T12:26:55Z</time>
      </trkpt>
      <trkpt lat="45.05957" lon="5.34193">
        <ele>225.4</ele>
        <time>2024-10-13T12:27:10Z</time>
      </trkpt>
      <trkpt lat="45.05957" lon="5.34206">
        <ele>223.9</ele>
        <time>2024-10-13T12:27:22Z</time>
      </trkpt>
      <trkpt lat="45.05959" lon="5.34218">
        <ele>222.8</ele>
        <time>2024-10-13T12:28:05Z</time>
      </trkpt>
      <trkpt lat="45.05961" lon="5.34232">
        <ele>221.8</ele>
        <time>2024-10-13T12:28:19Z</time>
      </trkpt>
      <trkpt lat="45.05964" lon="5.34244">
        <ele>220.3</ele>
        <time>2024-10-13T12:28:33Z</time>
      </trkpt>
      <trkpt lat="45.05971" lon="5.34253">
        <ele>218.2</ele>
        <time>2024-10-13T12:28:55Z</time>
      </trkpt>
      <trkpt lat="45.05974" lon="5.34266">
        <ele>217</ele>
        <time>2024-10-13T12:29:08Z</time>
      </trkpt>
      <trkpt lat="45.05975" lon="5.34278">
        <ele>216.9</ele>
        <time>2024-10-13T12:29:20Z</time>
      </trkpt>
      <trkpt lat="45.05976" lon="5.34292">
        <ele>216.5</ele>
        <time>2024-10-13T12:29:42Z</time>
      </trkpt>
      <trkpt lat="45.05978" lon="5.34305">
        <ele>216.9</ele>
        <time>2024-10-13T12:29:56Z</time>
      </trkpt>
      <trkpt lat="45.05984" lon="5.34315">
        <ele>215.8</ele>
        <time>2024-10-13T12:30:08Z</time>
      </trkpt>
      <trkpt lat="45.0599" lon="5.34326">
        <ele>215.1</ele>
        <time>2024-10-13T12:30:20Z</time>
      </trkpt>
      <trkpt lat="45.05993" lon="5.34338">
        <ele>214.8</ele>
        <time>2024-10-13T12:30:32Z</time>
      </trkpt>
      <trkpt lat="45.05987" lon="5.34348">
        <ele>215.1</ele>
        <time>2024-10-13T12:30:52Z</time>
      </trkpt>
      <trkpt lat="45.05978" lon="5.34353">
        <ele>215.1</ele>
        <time>2024-10-13T12:31:04Z</time>
      </trkpt>
      <trkpt lat="45.05968" lon="5.34355">
        <ele>215.4</ele>
        <time>2024-10-13T12:31:14Z</time>
      </trkpt>
      <trkpt lat="45.05958" lon="5.34356">
        <ele>215.8</ele>
        <time>2024-10-13T12:31:23Z</time>
      </trkpt>
      <trkpt lat="45.05949" lon="5.3436">
        <ele>216.2</ele>
        <time>2024-10-13T12:31:34Z</time>
      </trkpt>
      <trkpt lat="45.05942" lon="5.34351">
        <ele>216.6</ele>
        <time>2024-10-13T12:31:46Z</time>
      </trkpt>
      <trkpt lat="45.05935" lon="5.34343">
        <ele>216.4</ele>
        <time>2024-10-13T12:31:59Z</time>
      </trkpt>
      <trkpt lat="45.05926" lon="5.34345">
        <ele>216.4</ele>
        <time>2024-10-13T12:32:11Z</time>
      </trkpt>
      <trkpt lat="45.05926" lon="5.34347">
        <ele>216.4</ele>
        <time>2024-10-13T12:32:21Z</time>
      </trkpt>
    </trkseg>
  </trk>
</gpx>